createdAt,value
2019-03-11T00:01:02.000Z,26.2
2019-03-11T00:02:02.000Z,26.3
2019-03-11T00:03:02.000Z,26.3
2019-03-11T00:05:02.000Z,26.3
2019-03-11T00:07:02.000Z,26.2
2019-03-11T00:08:02.000Z,26.3
2019-03-11T00:10:02.000Z,26.3
2019-03-11T00:12:02.000Z,26.3
2019-03-11T00:14:02.000Z,26.2
2019-03-11T00:16:02.000Z,26.2
2019-03-11T00:18:02.000Z,26.2
2019-03-11T00:19:02.000Z,26.2
2019-03-11T00:21:02.000Z,26.2
2019-03-11T00:22:02.000Z,26.3
2019-03-11T00:24:02.000Z,26.3
2019-03-11T00:26:02.000Z,26.3
2019-03-11T00:27:02.000Z,26.3
2019-03-11T00:29:02.000Z,26.3
2019-03-11T00:31:02.000Z,26.3
2019-03-11T00:32:02.000Z,26.3
2019-03-11T00:33:02.000Z,26.3
2019-03-11T00:34:02.000Z,26.4
2019-03-11T00:36:02.000Z,26.5
2019-03-11T00:38:02.000Z,26.4
2019-03-11T00:39:02.000Z,26.4
2019-03-11T00:41:02.000Z,26.3
2019-03-11T00:43:02.000Z,26.3
2019-03-11T00:45:02.000Z,26.3
2019-03-11T00:46:02.000Z,26.3
2019-03-11T00:47:02.000Z,26.3
2019-03-11T00:48:02.000Z,26.3
2019-03-11T00:49:02.000Z,26.4
2019-03-11T00:50:02.000Z,26.5
2019-03-11T00:51:02.000Z,26.6
2019-03-11T00:52:47.000Z,26.6
2019-03-11T00:54:02.000Z,26.5
2019-03-11T00:55:02.000Z,26.4
2019-03-11T00:57:02.000Z,26.4
2019-03-11T00:59:02.000Z,26.4
2019-03-11T01:00:02.000Z,26.4
2019-03-11T01:02:02.000Z,26.4
2019-03-11T01:04:02.000Z,26.3
2019-03-11T01:06:02.000Z,26.2
2019-03-11T01:07:47.000Z,26.2
2019-03-11T01:09:02.000Z,26.2
2019-03-11T01:10:02.000Z,26.2
2019-03-11T01:12:02.000Z,26.2
2019-03-11T01:14:02.000Z,26.2
2019-03-11T01:15:02.000Z,26.2
2019-03-11T01:16:02.000Z,26.3
2019-03-11T01:18:02.000Z,26.4
2019-03-11T01:19:02.000Z,26.4
2019-03-11T01:21:02.000Z,26.4
2019-03-11T01:22:02.000Z,26.4
2019-03-11T01:24:02.000Z,26.4
2019-03-11T01:25:02.000Z,26.5
2019-03-11T01:27:02.000Z,26.4
2019-03-11T01:28:02.000Z,26.4
2019-03-11T01:30:02.000Z,26.4
2019-03-11T01:32:02.000Z,26.4
2019-03-11T01:34:02.000Z,26.3
2019-03-11T01:36:02.000Z,26.3
2019-03-11T01:38:02.000Z,26.2
2019-03-11T01:40:02.000Z,26.2
2019-03-11T01:41:02.000Z,26.2
2019-03-11T01:42:47.000Z,26.2
2019-03-11T01:44:02.000Z,26.2
2019-03-11T01:46:02.000Z,26.2
2019-03-11T01:48:02.000Z,26.2
2019-03-11T01:49:02.000Z,26.2
2019-03-11T01:51:02.000Z,26.2
2019-03-11T01:53:02.000Z,26.2
2019-03-11T01:54:02.000Z,26.3
2019-03-11T01:55:47.000Z,26.3
2019-03-11T01:57:02.000Z,26.3
2019-03-11T01:58:02.000Z,26.3
2019-03-11T02:00:02.000Z,26.2
2019-03-11T02:01:47.000Z,26.2
2019-03-11T02:03:02.000Z,26.1
2019-03-11T02:04:02.000Z,26
2019-03-11T02:06:02.000Z,26.1
2019-03-11T02:07:47.000Z,26.1
2019-03-11T02:09:02.000Z,26.1
2019-03-11T02:10:02.000Z,26.2
2019-03-11T02:11:47.000Z,26.2
2019-03-11T02:13:02.000Z,26.2
2019-03-11T02:14:02.000Z,26.3
2019-03-11T02:16:02.000Z,26.3
2019-03-11T02:18:02.000Z,26.3
2019-03-11T02:19:02.000Z,26.3
2019-03-11T02:20:02.000Z,26.4
2019-03-11T02:21:02.000Z,26.4
2019-03-11T02:23:02.000Z,26.4
2019-03-11T02:24:02.000Z,26.4
2019-03-11T02:26:02.000Z,26.4
2019-03-11T02:27:02.000Z,26.4
2019-03-11T02:29:02.000Z,26.5
2019-03-11T02:30:02.000Z,26.5
2019-03-11T02:32:02.000Z,26.5
2019-03-11T02:33:02.000Z,26.5
2019-03-11T02:35:02.000Z,26.5
2019-03-11T02:37:02.000Z,26.4
2019-03-11T02:39:02.000Z,26.4
2019-03-11T02:41:02.000Z,26.3
2019-03-11T02:43:02.000Z,26.3
2019-03-11T02:44:02.000Z,26.2
2019-03-11T02:46:02.000Z,26.3
2019-03-11T02:48:02.000Z,26.2
2019-03-11T02:50:02.000Z,26.2
2019-03-11T02:52:02.000Z,26.1
2019-03-11T02:53:47.000Z,26.1
2019-03-11T02:55:02.000Z,26
2019-03-11T02:57:02.000Z,26
2019-03-11T02:58:02.000Z,26
2019-03-11T03:00:02.000Z,26.1
2019-03-11T03:01:02.000Z,26.1
2019-03-11T03:03:02.000Z,26.2
2019-03-11T03:05:02.000Z,26.2
2019-03-11T03:07:02.000Z,26.2
2019-03-11T03:09:02.000Z,26.2
2019-03-11T03:11:02.000Z,26
2019-03-11T03:13:02.000Z,25.9
2019-03-11T03:15:02.000Z,26
2019-03-11T03:17:02.000Z,26
2019-03-11T03:19:02.000Z,26
2019-03-11T03:20:02.000Z,26.1
2019-03-11T03:21:02.000Z,26.1
2019-03-11T03:23:02.000Z,26.2
2019-03-11T03:24:02.000Z,26.3
2019-03-11T03:26:02.000Z,26.3
2019-03-11T03:27:47.000Z,26.3
2019-03-11T03:30:02.000Z,26
2019-03-11T03:31:02.000Z,26
2019-03-11T03:32:46.000Z,26
2019-03-11T03:33:47.000Z,26
2019-03-11T03:35:02.000Z,25.9
2019-03-11T03:36:02.000Z,26
2019-03-11T03:38:02.000Z,26.1
2019-03-11T03:40:02.000Z,26.1
2019-03-11T03:42:02.000Z,26
2019-03-11T03:43:46.000Z,26
2019-03-11T03:45:02.000Z,25.9
2019-03-11T03:46:02.000Z,25.9
2019-03-11T03:47:46.000Z,25.9
2019-03-11T03:48:47.000Z,26
2019-03-11T03:50:02.000Z,25.9
2019-03-11T03:51:02.000Z,25.9
2019-03-11T03:53:02.000Z,25.9
2019-03-11T03:55:02.000Z,25.9
2019-03-11T03:56:02.000Z,26
2019-03-11T03:57:02.000Z,26
2019-03-11T03:59:02.000Z,26.1
2019-03-11T04:00:46.000Z,26.1
2019-03-11T04:02:01.000Z,26.1
2019-03-11T04:03:01.000Z,26.1
2019-03-11T04:04:46.000Z,26.2
2019-03-11T04:06:01.000Z,26.2
2019-03-11T04:08:01.000Z,26.2
2019-03-11T04:09:46.000Z,26.2
2019-03-11T04:11:01.000Z,26.1
2019-03-11T04:12:46.000Z,26.1
2019-03-11T04:13:47.000Z,26.1
2019-03-11T04:15:01.000Z,26
2019-03-11T04:16:01.000Z,26.1
2019-03-11T04:18:01.000Z,26.1
2019-03-11T04:20:01.000Z,26.1
2019-03-11T04:21:01.000Z,26.2
2019-03-11T04:22:46.000Z,26.2
2019-03-11T04:24:01.000Z,26.2
2019-03-11T04:26:01.000Z,26.2
2019-03-11T04:28:01.000Z,26.1
2019-03-11T04:30:01.000Z,26
2019-03-11T04:31:01.000Z,26
2019-03-11T04:33:01.000Z,26.1
2019-03-11T04:35:01.000Z,26.1
2019-03-11T04:36:01.000Z,26.1
2019-03-11T04:38:01.000Z,26.1
2019-03-11T04:40:01.000Z,26.1
2019-03-11T04:41:46.000Z,26.1
2019-03-11T04:43:01.000Z,26.1
2019-03-11T04:44:46.000Z,26.1
2019-03-11T04:46:01.000Z,26.1
2019-03-11T04:48:01.000Z,26
2019-03-11T04:49:01.000Z,26
2019-03-11T04:50:01.000Z,26.1
2019-03-11T04:52:01.000Z,26.1
2019-03-11T04:53:01.000Z,26.1
2019-03-11T04:55:01.000Z,26.2
2019-03-11T04:57:01.000Z,26.2
2019-03-11T04:59:01.000Z,26.2
2019-03-11T05:00:46.000Z,26.2
2019-03-11T05:02:01.000Z,26.1
2019-03-11T05:03:01.000Z,26.2
2019-03-11T05:04:46.000Z,26.2
2019-03-11T05:06:02.000Z,26.2
2019-03-11T05:08:02.000Z,26.2
2019-03-11T05:09:02.000Z,26.1
2019-03-11T05:10:02.000Z,26.2
2019-03-11T05:12:02.000Z,26.1
2019-03-11T05:14:02.000Z,26.1
2019-03-11T05:16:02.000Z,26.1
2019-03-11T05:17:47.000Z,26.1
2019-03-11T05:19:02.000Z,26
2019-03-11T05:20:02.000Z,26
2019-03-11T05:22:02.000Z,26
2019-03-11T05:24:02.000Z,26
2019-03-11T05:25:46.000Z,26
2019-03-11T05:27:02.000Z,26
2019-03-11T05:28:02.000Z,26
2019-03-11T05:30:02.000Z,26
2019-03-11T05:31:02.000Z,26
2019-03-11T05:33:02.000Z,26
2019-03-11T05:35:02.000Z,26.1
2019-03-11T05:37:02.000Z,26.1
2019-03-11T05:38:02.000Z,26.1
2019-03-11T05:39:02.000Z,26.2
2019-03-11T05:41:02.000Z,26.3
2019-03-11T05:43:02.000Z,26.2
2019-03-11T05:44:46.000Z,26.2
2019-03-11T05:46:02.000Z,26.2
2019-03-11T05:48:02.000Z,26.2
2019-03-11T05:49:02.000Z,26.2
2019-03-11T05:51:02.000Z,26.2
2019-03-11T05:52:02.000Z,26.3
2019-03-11T05:54:02.000Z,26.3
2019-03-11T05:55:46.000Z,26.3
2019-03-11T05:57:02.000Z,26.2
2019-03-11T05:59:02.000Z,26.2
2019-03-11T06:01:02.000Z,26.2
2019-03-11T06:02:02.000Z,26.3
2019-03-11T06:03:02.000Z,26.3
2019-03-11T06:05:02.000Z,26.4
2019-03-11T06:07:02.000Z,26.4
2019-03-11T06:09:02.000Z,26.3
2019-03-11T06:10:02.000Z,26.4
2019-03-11T06:12:02.000Z,26.5
2019-03-11T06:14:02.000Z,26.5
2019-03-11T06:16:02.000Z,26.6
2019-03-11T06:17:02.000Z,26.6
2019-03-11T06:18:47.000Z,26.7
2019-03-11T06:20:02.000Z,26.6
2019-03-11T06:21:02.000Z,26.7
2019-03-11T06:23:02.000Z,26.8
2019-03-11T06:25:02.000Z,26.8
2019-03-11T06:27:02.000Z,26.7
2019-03-11T06:29:02.000Z,26.7
2019-03-11T06:30:02.000Z,26.7
2019-03-11T06:32:02.000Z,26.8
2019-03-11T06:34:02.000Z,26.9
2019-03-11T06:36:02.000Z,26.9
2019-03-11T06:38:02.000Z,26.9
2019-03-11T06:40:02.000Z,27
2019-03-11T06:42:02.000Z,27
2019-03-11T06:43:02.000Z,27
2019-03-11T06:44:02.000Z,27
2019-03-11T06:46:02.000Z,27
2019-03-11T06:48:02.000Z,27
2019-03-11T06:50:02.000Z,27
2019-03-11T06:51:02.000Z,27
2019-03-11T06:53:02.000Z,27
2019-03-11T06:54:02.000Z,27
2019-03-11T06:56:02.000Z,27
2019-03-11T06:58:02.000Z,27
2019-03-11T07:00:02.000Z,27
2019-03-11T07:01:02.000Z,27
2019-03-11T07:02:02.000Z,27.1
2019-03-11T07:04:02.000Z,27.1
2019-03-11T07:06:02.000Z,27.2
2019-03-11T07:08:02.000Z,27.1
2019-03-11T07:09:02.000Z,27.2
2019-03-11T07:11:02.000Z,27.1
2019-03-11T07:13:02.000Z,27.2
2019-03-11T07:15:02.000Z,27.2
2019-03-11T07:17:02.000Z,27.3
2019-03-11T07:19:02.000Z,27.3
2019-03-11T07:20:02.000Z,27.3
2019-03-11T07:22:02.000Z,27.4
2019-03-11T07:23:02.000Z,27.4
2019-03-11T07:25:02.000Z,27.5
2019-03-11T07:27:02.000Z,27.5
2019-03-11T07:29:02.000Z,27.5
2019-03-11T07:31:02.000Z,27.4
2019-03-11T07:33:02.000Z,27.4
2019-03-11T07:34:02.000Z,27.4
2019-03-11T07:36:02.000Z,27.4
2019-03-11T07:37:02.000Z,27.5
2019-03-11T07:39:02.000Z,27.5
2019-03-11T07:40:02.000Z,27.5
2019-03-11T07:42:02.000Z,27.6
2019-03-11T07:44:02.000Z,27.6
2019-03-11T07:45:02.000Z,27.6
2019-03-11T07:46:02.000Z,27.6
2019-03-11T07:48:02.000Z,27.6
2019-03-11T07:50:02.000Z,27.6
2019-03-11T07:51:02.000Z,27.6
2019-03-11T07:53:02.000Z,27.6
2019-03-11T07:55:02.000Z,27.6
2019-03-11T07:57:02.000Z,27.5
2019-03-11T07:59:02.000Z,27.5
2019-03-11T08:00:47.000Z,27.5
2019-03-11T08:44:34.000Z,26.1
2019-03-11T08:45:34.000Z,26.2
2019-03-11T08:47:34.000Z,26.6
2019-03-11T08:48:34.000Z,26.8
2019-03-11T08:50:34.000Z,27.1
2019-03-11T08:51:34.000Z,27.3
2019-03-11T08:53:34.000Z,27.5
2019-03-11T08:54:34.000Z,27.6
2019-03-11T08:56:34.000Z,27.7
2019-03-11T08:57:34.000Z,27.8
2019-03-11T08:58:34.000Z,27.9
2019-03-11T08:59:34.000Z,28
2019-03-11T09:01:34.000Z,28.1
2019-03-11T09:02:34.000Z,28.1
2019-03-11T09:04:34.000Z,28.1
2019-03-11T09:05:34.000Z,28.1
2019-03-11T09:07:34.000Z,28.2
2019-03-11T09:08:34.000Z,28.2
2019-03-11T09:09:34.000Z,28.3
2019-03-11T09:10:34.000Z,28.3
2019-03-11T09:12:19.000Z,28.4
2019-03-11T09:13:34.000Z,28.3
2019-03-11T09:15:34.000Z,28.3
2019-03-11T09:17:34.000Z,28.2
2019-03-11T09:18:34.000Z,28.1
2019-03-11T09:20:34.000Z,28.2
2019-03-11T09:22:34.000Z,28.1
2019-03-11T09:23:34.000Z,28.1
2019-03-11T09:24:34.000Z,28.1
2019-03-11T09:26:34.000Z,28.2
2019-03-11T09:28:18.000Z,28.2
2019-03-11T09:29:34.000Z,28.2
2019-03-11T09:30:34.000Z,28.2
2019-03-11T09:32:34.000Z,28.3
2019-03-11T09:33:34.000Z,28.3
2019-03-11T09:35:34.000Z,28.4
2019-03-11T09:37:34.000Z,28.5
2019-03-11T09:39:34.000Z,28.5
2019-03-11T09:41:18.000Z,28.6
2019-03-11T09:42:34.000Z,28.6
2019-03-11T09:43:34.000Z,28.7
2019-03-11T09:45:34.000Z,28.6
2019-03-11T09:47:34.000Z,28.5
2019-03-11T09:48:34.000Z,28.5
2019-03-11T09:50:34.000Z,28.5
2019-03-11T09:51:34.000Z,28.5
2019-03-11T09:53:34.000Z,28.4
2019-03-11T09:55:34.000Z,28.3
2019-03-11T09:57:34.000Z,28.2
2019-03-11T09:58:34.000Z,28.2
2019-03-11T09:59:34.000Z,28.3
2019-03-11T10:00:34.000Z,28.4
2019-03-11T10:02:34.000Z,28.5
2019-03-11T10:04:18.000Z,28.5
2019-03-11T10:05:34.000Z,28.5
2019-03-11T10:06:34.000Z,28.5
2019-03-11T10:07:34.000Z,28.5
2019-03-11T10:09:34.000Z,28.6
2019-03-11T10:11:18.000Z,28.6
2019-03-11T10:12:34.000Z,28.5
2019-03-11T10:14:34.000Z,28.5
2019-03-11T10:15:34.000Z,28.5
2019-03-11T10:17:34.000Z,28.6
2019-03-11T10:18:34.000Z,28.6
2019-03-11T10:20:34.000Z,28.8
2019-03-11T10:22:34.000Z,29
2019-03-11T10:24:34.000Z,29.2
2019-03-11T10:25:34.000Z,29.4
2019-03-11T10:27:34.000Z,29.7
2019-03-11T10:29:34.000Z,29.9
2019-03-11T10:30:34.000Z,29.9
2019-03-11T10:32:34.000Z,29.9
2019-03-11T10:33:34.000Z,29.8
2019-03-11T10:35:19.000Z,29.6
2019-03-11T10:36:34.000Z,29.4
2019-03-11T10:37:34.000Z,29.4
2019-03-11T10:38:34.000Z,29.4
2019-03-11T10:40:19.000Z,29.7
2019-03-11T10:41:34.000Z,30.2
2019-03-11T10:43:34.000Z,31.3
2019-03-11T10:45:19.000Z,31.6
2019-03-11T10:46:34.000Z,31.6
2019-03-11T10:47:34.000Z,31.5
2019-03-11T10:49:34.000Z,31.1
2019-03-11T10:51:34.000Z,30.9
2019-03-11T10:53:19.000Z,30.9
2019-03-11T10:54:34.000Z,31.5
2019-03-11T10:55:34.000Z,31.8
2019-03-11T10:56:34.000Z,31.8
2019-03-11T10:58:34.000Z,31.3
2019-03-11T11:00:34.000Z,30.9
2019-03-11T11:02:34.000Z,30.4
2019-03-11T11:04:34.000Z,30.1
2019-03-11T11:05:34.000Z,30
2019-03-11T11:07:34.000Z,29.9
2019-03-11T11:08:34.000Z,29.9
2019-03-11T11:09:34.000Z,29.9
2019-03-11T11:11:34.000Z,29.8
2019-03-11T11:13:34.000Z,29.6
2019-03-11T11:14:34.000Z,29.7
2019-03-11T11:16:34.000Z,29.9
2019-03-11T11:17:34.000Z,29.9
2019-03-11T11:18:34.000Z,30
2019-03-11T11:20:34.000Z,30.3
2019-03-11T11:21:34.000Z,30.4
2019-03-11T11:23:34.000Z,30.9
2019-03-11T11:25:34.000Z,31.2
2019-03-11T11:26:34.000Z,31.4
2019-03-11T11:28:19.000Z,31.5
2019-03-11T11:29:34.000Z,31.5
2019-03-11T11:30:34.000Z,31.5
2019-03-11T11:32:34.000Z,31.6
2019-03-11T11:34:34.000Z,31.4
2019-03-11T11:35:34.000Z,31.3
2019-03-11T11:37:19.000Z,31.1
2019-03-11T11:38:34.000Z,31
2019-03-11T11:40:34.000Z,31.1
2019-03-11T11:41:34.000Z,31.6
2019-03-11T11:43:34.000Z,32.2
2019-03-11T11:45:34.000Z,33.4
2019-03-11T11:47:34.000Z,33.5
2019-03-11T11:49:19.000Z,32.9
2019-03-11T11:50:34.000Z,32.4
2019-03-11T11:52:34.000Z,31.8
2019-03-11T11:54:34.000Z,31.4
2019-03-11T11:55:34.000Z,31.2
2019-03-11T11:57:34.000Z,31
2019-03-11T11:59:19.000Z,30.9
2019-03-11T12:00:34.000Z,30.8
2019-03-11T12:02:34.000Z,30.7
2019-03-11T12:03:34.000Z,30.6
2019-03-11T12:05:34.000Z,30.5
2019-03-11T12:06:34.000Z,30.5
2019-03-11T12:07:34.000Z,30.5
2019-03-11T12:09:34.000Z,30.4
2019-03-11T12:11:34.000Z,30.4
2019-03-11T12:13:34.000Z,30.3
2019-03-11T12:15:34.000Z,30.2
2019-03-11T12:17:34.000Z,30.2
2019-03-11T12:18:34.000Z,30.3
2019-03-11T12:20:19.000Z,30.4
2019-03-11T12:21:34.000Z,30.3
2019-03-11T12:23:34.000Z,30.3
2019-03-11T12:25:34.000Z,30.2
2019-03-11T12:27:34.000Z,30.2
2019-03-11T12:29:34.000Z,30
2019-03-11T12:31:20.000Z,29.9
2019-03-11T12:32:35.000Z,29.6
2019-03-11T12:34:35.000Z,29.4
2019-03-11T12:35:35.000Z,29.4
2019-03-11T12:37:35.000Z,29.4
2019-03-11T12:39:35.000Z,29.6
2019-03-11T12:40:35.000Z,29.9
2019-03-11T12:42:35.000Z,31.1
2019-03-11T12:44:35.000Z,32.2
2019-03-11T12:46:19.000Z,32.5
2019-03-11T12:47:35.000Z,32.6
2019-03-11T12:49:35.000Z,32.7
2019-03-11T12:50:35.000Z,32.9
2019-03-11T12:52:35.000Z,33.7
2019-03-11T12:54:35.000Z,34.5
2019-03-11T12:56:35.000Z,33.2
2019-03-11T12:57:35.000Z,32.4
2019-03-11T12:58:35.000Z,31.9
2019-03-11T13:00:19.000Z,31.7
2019-03-11T13:01:35.000Z,31.5
2019-03-11T13:03:35.000Z,31.4
2019-03-11T13:05:35.000Z,31.2
2019-03-11T13:07:35.000Z,29.7
2019-03-11T13:09:35.000Z,28.2
2019-03-11T13:10:35.000Z,27.6
2019-03-11T13:11:35.000Z,27.2
2019-03-11T13:13:35.000Z,26.4
2019-03-11T13:15:35.000Z,25.8
2019-03-11T13:17:35.000Z,25.3
2019-03-11T13:18:35.000Z,25.1
2019-03-11T13:19:35.000Z,24.9
2019-03-11T13:20:35.000Z,24.8
2019-03-11T13:22:35.000Z,24.6
2019-03-11T13:23:35.000Z,24.6
2019-03-11T13:25:35.000Z,24.4
2019-03-11T13:27:35.000Z,24.2
2019-03-11T13:28:35.000Z,24.2
2019-03-11T13:30:35.000Z,24.1
2019-03-11T13:31:35.000Z,24
2019-03-11T13:33:35.000Z,23.9
2019-03-11T13:35:34.000Z,23.7
2019-03-11T13:36:34.000Z,23.8
2019-03-11T13:38:34.000Z,24.2
2019-03-11T13:40:34.000Z,24.6
2019-03-11T13:41:34.000Z,24.8
2019-03-11T13:42:34.000Z,25
2019-03-11T13:44:34.000Z,25.4
2019-03-11T13:45:34.000Z,25.6
2019-03-11T13:47:34.000Z,25.9
2019-03-11T13:49:34.000Z,26.1
2019-03-11T13:51:34.000Z,26.3
2019-03-11T13:52:34.000Z,26.4
2019-03-11T13:53:34.000Z,26.5
2019-03-11T13:55:34.000Z,26.6
2019-03-11T13:57:34.000Z,26.7
2019-03-11T13:59:34.000Z,26.7
2019-03-11T14:00:34.000Z,26.7
2019-03-11T14:02:19.000Z,26.8
2019-03-11T14:03:34.000Z,26.8
2019-03-11T14:05:34.000Z,26.8
2019-03-11T14:07:34.000Z,26.7
2019-03-11T14:09:34.000Z,26.8
2019-03-11T14:11:34.000Z,26.9
2019-03-11T14:12:34.000Z,27
2019-03-11T14:14:34.000Z,27.2
2019-03-11T14:16:34.000Z,27.2
2019-03-11T14:18:34.000Z,27.2
2019-03-11T14:20:34.000Z,27.3
2019-03-11T14:22:19.000Z,27.3
2019-03-11T14:23:34.000Z,27.2
2019-03-11T14:24:34.000Z,27.3
2019-03-11T14:26:34.000Z,27.4
2019-03-11T14:28:34.000Z,27.4
2019-03-11T14:29:34.000Z,27.4
2019-03-11T14:31:34.000Z,27.5
2019-03-11T14:33:34.000Z,27.5
2019-03-11T14:34:34.000Z,27.5
2019-03-11T14:36:20.000Z,27.5
2019-03-11T14:37:34.000Z,27.5
2019-03-11T14:39:34.000Z,27.7
2019-03-11T14:40:34.000Z,27.8
2019-03-11T14:42:34.000Z,28
2019-03-11T14:44:19.000Z,28.1
2019-03-11T14:45:34.000Z,28.2
2019-03-11T14:47:34.000Z,28.4
2019-03-11T14:48:34.000Z,28.5
2019-03-11T14:50:19.000Z,28.7
2019-03-11T14:51:34.000Z,28.6
2019-03-11T14:52:34.000Z,28.6
2019-03-11T14:53:34.000Z,28.6
2019-03-11T14:55:34.000Z,28.6
2019-03-11T14:57:34.000Z,28.5
2019-03-11T14:59:34.000Z,28.3
2019-03-11T15:00:34.000Z,28.2
2019-03-11T15:02:34.000Z,28.2
2019-03-11T15:03:34.000Z,28.2
2019-03-11T15:05:34.000Z,28.2
2019-03-11T15:07:34.000Z,28.2
2019-03-11T15:09:34.000Z,28.2
2019-03-11T15:11:19.000Z,28.3
2019-03-11T15:12:34.000Z,28.3
2019-03-11T15:14:34.000Z,28.4
2019-03-11T15:15:34.000Z,28.5
2019-03-11T15:17:34.000Z,28.5
2019-03-11T15:19:19.000Z,28.5
2019-03-11T15:20:34.000Z,28.4
2019-03-11T15:21:34.000Z,28.4
2019-03-11T15:23:20.000Z,28.4
2019-03-11T15:25:34.000Z,28.2
2019-03-11T15:27:34.000Z,28
2019-03-11T15:29:34.000Z,28
2019-03-11T15:31:34.000Z,28
2019-03-11T15:32:34.000Z,28
2019-03-11T15:34:34.000Z,28.1
2019-03-11T15:36:19.000Z,28.1
2019-03-11T15:37:34.000Z,28
2019-03-11T15:39:34.000Z,28
2019-03-11T15:40:34.000Z,28
2019-03-11T15:42:34.000Z,28.1
2019-03-11T15:43:34.000Z,28.1
2019-03-11T15:45:34.000Z,28.1
2019-03-11T15:47:34.000Z,28
2019-03-11T15:48:34.000Z,28
2019-03-11T15:50:34.000Z,28
2019-03-11T15:51:34.000Z,27.9
2019-03-11T15:53:34.000Z,27.8
2019-03-11T15:54:34.000Z,27.8
2019-03-11T15:55:34.000Z,27.9
2019-03-11T15:57:34.000Z,28
2019-03-11T15:59:34.000Z,27.9
2019-03-11T16:00:34.000Z,27.9
2019-03-11T16:02:34.000Z,27.8
2019-03-11T16:03:34.000Z,27.8
2019-03-11T16:05:34.000Z,27.8
2019-03-11T16:06:34.000Z,27.9
2019-03-11T16:08:34.000Z,27.9
2019-03-11T16:09:34.000Z,27.9
2019-03-11T16:10:34.000Z,28
2019-03-11T16:12:19.000Z,28.1
2019-03-11T16:13:34.000Z,28.1
2019-03-11T16:15:34.000Z,28
2019-03-11T16:16:34.000Z,28
2019-03-11T16:18:34.000Z,28
2019-03-11T16:19:34.000Z,28
2019-03-11T16:20:34.000Z,28
2019-03-11T16:22:19.000Z,28.1
2019-03-11T16:23:34.000Z,28
2019-03-11T16:24:34.000Z,28
2019-03-11T16:25:34.000Z,28
2019-03-11T16:27:34.000Z,28.1
2019-03-11T16:28:34.000Z,28.1
2019-03-11T16:30:34.000Z,28.2
2019-03-11T16:32:34.000Z,28.1
2019-03-11T16:34:34.000Z,27.9
2019-03-11T16:35:34.000Z,27.9
2019-03-11T16:37:34.000Z,27.9
2019-03-11T16:38:34.000Z,27.9
2019-03-11T16:40:34.000Z,28
2019-03-11T16:42:34.000Z,28
2019-03-11T16:43:34.000Z,28
2019-03-11T16:44:34.000Z,28
2019-03-11T16:45:34.000Z,28.1
2019-03-11T16:47:34.000Z,28.1
2019-03-11T16:49:34.000Z,28.1
2019-03-11T16:51:34.000Z,28
2019-03-11T16:53:34.000Z,28
2019-03-11T16:55:34.000Z,28
2019-03-11T16:57:34.000Z,27.9
2019-03-11T16:59:34.000Z,27.7
2019-03-11T17:01:34.000Z,27.7
2019-03-11T17:03:34.000Z,27.7
2019-03-11T17:05:34.000Z,27.7
2019-03-11T17:06:34.000Z,27.7
2019-03-11T17:07:34.000Z,27.8
2019-03-11T17:09:34.000Z,27.8
2019-03-11T17:11:34.000Z,27.8
2019-03-11T17:12:34.000Z,27.8
2019-03-11T17:14:34.000Z,27.8
2019-03-11T17:16:34.000Z,27.8
2019-03-11T17:18:34.000Z,27.7
2019-03-11T17:19:34.000Z,27.7
2019-03-11T17:20:34.000Z,27.7
2019-03-11T17:21:34.000Z,27.8
2019-03-11T17:23:34.000Z,27.9
2019-03-11T17:25:34.000Z,27.8
2019-03-11T17:27:19.000Z,27.7
2019-03-11T17:28:34.000Z,27.7
2019-03-11T17:30:34.000Z,27.6
2019-03-11T17:32:19.000Z,27.6
2019-03-11T17:33:34.000Z,27.6
2019-03-11T17:34:34.000Z,27.6
2019-03-11T17:35:34.000Z,27.6
2019-03-11T17:37:34.000Z,27.5
2019-03-11T17:38:34.000Z,27.5
2019-03-11T17:40:19.000Z,27.5
2019-03-11T17:41:34.000Z,27.5
2019-03-11T17:42:34.000Z,27.5
2019-03-11T17:44:34.000Z,27.5
2019-03-11T17:45:34.000Z,27.6
2019-03-11T17:47:34.000Z,27.6
2019-03-11T17:49:34.000Z,27.5
2019-03-11T17:51:35.000Z,27.5
2019-03-11T17:52:35.000Z,27.5
2019-03-11T17:54:19.000Z,27.5
2019-03-11T17:55:35.000Z,27.4
2019-03-11T17:57:35.000Z,27.4
2019-03-11T17:58:35.000Z,27.4
2019-03-11T18:00:35.000Z,27.5
2019-03-11T18:02:35.000Z,27.4
2019-03-11T18:04:35.000Z,27.4
2019-03-11T18:06:35.000Z,27.3
2019-03-11T18:07:35.000Z,27.3
2019-03-11T18:09:35.000Z,27.4
2019-03-11T18:10:35.000Z,27.4
2019-03-11T18:12:35.000Z,27.5
2019-03-11T18:14:35.000Z,27.5
2019-03-11T18:15:35.000Z,27.5
2019-03-11T18:17:35.000Z,27.5
2019-03-11T18:19:35.000Z,27.4
2019-03-11T18:20:35.000Z,27.4
2019-03-11T18:22:35.000Z,27.4
2019-03-11T18:24:35.000Z,27.4
2019-03-11T18:26:35.000Z,27.3
2019-03-11T18:28:19.000Z,27.3
2019-03-11T18:29:35.000Z,27.3
2019-03-11T18:31:35.000Z,27.2
2019-03-11T18:33:35.000Z,27.1
2019-03-11T18:34:35.000Z,27
2019-03-11T18:36:35.000Z,27.1
2019-03-11T18:37:35.000Z,27.1
2019-03-11T18:39:35.000Z,27.2
2019-03-11T18:40:35.000Z,27.2
2019-03-11T18:42:20.000Z,27.2
2019-03-11T18:43:21.000Z,27.1
2019-03-11T18:45:35.000Z,26.9
2019-03-11T18:46:35.000Z,26.9
2019-03-11T18:48:35.000Z,26.8
2019-03-11T18:50:35.000Z,26.8
2019-03-11T18:52:35.000Z,26.9
2019-03-11T18:54:19.000Z,27
2019-03-11T18:55:34.000Z,26.9
2019-03-11T18:56:34.000Z,26.9
2019-03-11T18:58:19.000Z,26.9
2019-03-11T18:59:34.000Z,26.9
2019-03-11T19:00:34.000Z,27
2019-03-11T19:02:34.000Z,27.1
2019-03-11T19:04:34.000Z,27.1
2019-03-11T19:06:34.000Z,27.1
2019-03-11T19:07:34.000Z,27.1
2019-03-11T19:09:34.000Z,27.1
2019-03-11T19:11:34.000Z,27.1
2019-03-11T19:12:34.000Z,27.2
2019-03-11T19:13:34.000Z,27.2
2019-03-11T19:14:34.000Z,27.3
2019-03-11T19:16:34.000Z,27.3
2019-03-11T19:17:34.000Z,27.3
2019-03-11T19:19:19.000Z,27.3
2019-03-11T19:20:34.000Z,27.3
2019-03-11T19:22:34.000Z,27.2
2019-03-11T19:23:34.000Z,27.2
2019-03-11T19:25:34.000Z,27.2
2019-03-11T19:26:34.000Z,27.2
2019-03-11T19:28:34.000Z,27.3
2019-03-11T19:29:34.000Z,27.3
2019-03-11T19:31:34.000Z,27.3
2019-03-11T19:33:34.000Z,27.2
2019-03-11T19:34:34.000Z,27.2
2019-03-11T19:36:34.000Z,27.2
2019-03-11T19:37:34.000Z,27.2
2019-03-11T19:39:34.000Z,27.1
2019-03-11T19:41:34.000Z,27.1
2019-03-11T19:43:19.000Z,27
2019-03-11T19:44:19.000Z,27
2019-03-11T19:45:34.000Z,27
2019-03-11T19:46:34.000Z,27
2019-03-11T19:47:34.000Z,27.1
2019-03-11T19:49:34.000Z,27.1
2019-03-11T19:51:34.000Z,27.1
2019-03-11T19:52:34.000Z,27.1
2019-03-11T19:54:34.000Z,27.1
2019-03-11T19:56:34.000Z,27.1
2019-03-11T19:58:19.000Z,27
2019-03-11T19:59:34.000Z,26.9
2019-03-11T20:00:34.000Z,26.8
2019-03-11T20:02:34.000Z,26.8
2019-03-11T20:04:34.000Z,26.7
2019-03-11T20:06:19.000Z,26.7
2019-03-11T20:08:34.000Z,26.7
2019-03-11T20:10:19.000Z,26.7
2019-03-11T20:11:34.000Z,26.7
2019-03-11T20:13:34.000Z,26.6
2019-03-11T20:15:34.000Z,26.5
2019-03-11T20:17:34.000Z,26.4
2019-03-11T20:19:34.000Z,26.4
2019-03-11T20:21:34.000Z,26.4
2019-03-11T20:23:19.000Z,26.5
2019-03-11T20:24:34.000Z,26.4
2019-03-11T20:26:34.000Z,26.5
2019-03-11T20:27:34.000Z,26.5
2019-03-11T20:29:19.000Z,26.6
2019-03-11T20:30:19.000Z,26.5
2019-03-11T20:31:34.000Z,26.5
2019-03-11T20:32:34.000Z,26.4
2019-03-11T20:34:34.000Z,26.4
2019-03-11T20:36:20.000Z,26.4
2019-03-11T20:37:34.000Z,26.3
2019-03-11T20:39:34.000Z,26.3
2019-03-11T20:40:34.000Z,26.4
2019-03-11T20:41:34.000Z,26.5
2019-03-11T20:43:34.000Z,26.5
2019-03-11T20:45:19.000Z,26.6
2019-03-11T20:46:34.000Z,26.5
2019-03-11T20:48:34.000Z,26.4
2019-03-11T20:49:34.000Z,26.3
2019-03-11T20:51:19.000Z,26.2
2019-03-11T20:52:34.000Z,26.2
2019-03-11T20:54:34.000Z,26.2
2019-03-11T20:56:34.000Z,26.4
2019-03-11T20:57:34.000Z,26.4
2019-03-11T20:59:19.000Z,26.5
2019-03-11T21:01:19.000Z,26.5
2019-03-11T21:02:19.000Z,26.5
2019-03-11T21:03:34.000Z,26.4
2019-03-11T21:04:34.000Z,26.4
2019-03-11T21:06:19.000Z,26.4
2019-03-11T21:07:19.000Z,26.4
2019-03-11T21:08:34.000Z,26.4
2019-03-11T21:10:19.000Z,26.4
2019-03-11T21:11:34.000Z,26.4
2019-03-11T21:12:34.000Z,26.4
2019-03-11T21:14:19.000Z,26.6
2019-03-11T21:15:19.000Z,26.6
2019-03-11T21:16:34.000Z,26.5
2019-03-11T21:18:34.000Z,26.4
2019-03-11T21:20:34.000Z,26.3
2019-03-11T21:22:34.000Z,26.3
2019-03-11T21:24:34.000Z,26.3
2019-03-11T21:26:34.000Z,26.2
2019-03-11T21:27:34.000Z,26.3
2019-03-11T21:29:34.000Z,26.3
2019-03-11T21:31:34.000Z,26.2
2019-03-11T21:33:19.000Z,26.1
2019-03-11T21:34:34.000Z,26
2019-03-11T21:36:19.000Z,25.9
2019-03-11T21:37:34.000Z,25.8
2019-03-11T21:39:19.000Z,25.9
2019-03-11T21:40:34.000Z,25.9
2019-03-11T21:41:34.000Z,26
2019-03-11T21:43:34.000Z,26
2019-03-11T21:44:34.000Z,26.1
2019-03-11T21:46:19.000Z,26.2
2019-03-11T21:48:34.000Z,26.2
2019-03-11T21:49:34.000Z,26.1
2019-03-11T21:51:34.000Z,26.1
2019-03-11T21:53:34.000Z,26.1
2019-03-11T21:55:34.000Z,26.1
2019-03-11T21:57:34.000Z,26.1
2019-03-11T21:59:19.000Z,26.1
2019-03-11T22:00:33.000Z,26
2019-03-11T22:01:34.000Z,26